9AMIH LHMR-LHHO
Flight info
| Callsign | 9AMIH |
|---|---|
| Flight time | 0h 33m |
| Altitude | 3500 |
| Route | TISZAFURED NADUDVAR |
| Aircraft | C152/L-SDFGRY/S |
Departure
| Time | 2026-05-04 14:30 |
|---|---|
| Airport | Maklár Airfield (LHMR) |
Arrival
| Time | 2026-05-04 15:03 |
|---|---|
| Airport | Hajdúszoboszló Airfield (LHHO) |
| Time | Latitude | Longitude | Altitude | Speed | Heading |
|---|---|---|---|---|---|
| 2026-05-04 14:12 | 47.81533 | 20.41929 | 429 ft | 0 kts | 63° |
| 2026-05-04 14:22 | 47.81534 | 20.41931 | 429 ft | 1 kts | 61° |
| 2026-05-04 14:22 | 47.81542 | 20.41951 | 422 ft | 5 kts | 51° |
| 2026-05-04 14:22 | 47.81568 | 20.42043 | 422 ft | 14 kts | 73° |
| 2026-05-04 14:23 | 47.81611 | 20.42178 | 420 ft | 0 kts | 64° |
| 2026-05-04 14:28 | 47.81617 | 20.42194 | 421 ft | 4 kts | 71° |
| 2026-05-04 14:28 | 47.81620 | 20.42236 | 420 ft | 7 kts | 312° |
| 2026-05-04 14:28 | 47.81622 | 20.42270 | 421 ft | 3 kts | 191° |
| 2026-05-04 14:28 | 47.81585 | 20.42243 | 419 ft | 0 kts | 172° |
| 2026-05-04 14:29 | 47.81312 | 20.42271 | 429 ft | 53 kts | 181° |
| 2026-05-04 14:29 | 47.80475 | 20.42337 | 698 ft | 63 kts | 180° |
| 2026-05-04 14:30 | 47.80007 | 20.42363 | 813 ft | 68 kts | 182° |
| 2026-05-04 14:30 | 47.79560 | 20.42377 | 1068 ft | 62 kts | 184° |
| 2026-05-04 14:30 | 47.78784 | 20.43154 | 1302 ft | 81 kts | 139° |
| 2026-05-04 14:31 | 47.78437 | 20.43854 | 1440 ft | 85 kts | 136° |
| 2026-05-04 14:31 | 47.77806 | 20.45095 | 1999 ft | 73 kts | 137° |
| 2026-05-04 14:32 | 47.77175 | 20.46279 | 2364 ft | 74 kts | 140° |
| 2026-05-04 14:32 | 47.76840 | 20.46855 | 2511 ft | 77 kts | 137° |
| 2026-05-04 14:32 | 47.76520 | 20.47499 | 2656 ft | 80 kts | 135° |
| 2026-05-04 14:32 | 47.76192 | 20.48140 | 2857 ft | 76 kts | 135° |
| 2026-05-04 14:33 | 47.75836 | 20.48746 | 3004 ft | 80 kts | 142° |
| 2026-05-04 14:33 | 47.75421 | 20.49371 | 3043 ft | 92 kts | 141° |
| 2026-05-04 14:33 | 47.75003 | 20.50049 | 3123 ft | 87 kts | 138° |
| 2026-05-04 14:33 | 47.74600 | 20.50737 | 3138 ft | 89 kts | 139° |
| 2026-05-04 14:34 | 47.74190 | 20.51444 | 3079 ft | 91 kts | 139° |
| 2026-05-04 14:34 | 47.73779 | 20.52135 | 3066 ft | 88 kts | 138° |
| 2026-05-04 14:34 | 47.73371 | 20.52845 | 3033 ft | 93 kts | 137° |
| 2026-05-04 14:34 | 47.72958 | 20.53605 | 3024 ft | 95 kts | 134° |
| 2026-05-04 14:35 | 47.72568 | 20.54424 | 2964 ft | 97 kts | 132° |
| 2026-05-04 14:35 | 47.72181 | 20.55221 | 2986 ft | 95 kts | 132° |
| 2026-05-04 14:35 | 47.71811 | 20.56038 | 3001 ft | 96 kts | 129° |
| 2026-05-04 14:35 | 47.71471 | 20.56874 | 2994 ft | 94 kts | 128° |
| 2026-05-04 14:36 | 47.71125 | 20.57709 | 2978 ft | 95 kts | 130° |
| 2026-05-04 14:36 | 47.70767 | 20.58528 | 2945 ft | 96 kts | 130° |
| 2026-05-04 14:36 | 47.70421 | 20.59366 | 2901 ft | 95 kts | 131° |
| 2026-05-04 14:36 | 47.70049 | 20.60154 | 2881 ft | 91 kts | 134° |
| 2026-05-04 14:37 | 47.69676 | 20.60872 | 2892 ft | 85 kts | 136° |
| 2026-05-04 14:37 | 47.69306 | 20.61546 | 2908 ft | 83 kts | 137° |
| 2026-05-04 14:37 | 47.68922 | 20.62194 | 2900 ft | 82 kts | 136° |
| 2026-05-04 14:37 | 47.68524 | 20.62807 | 2903 ft | 82 kts | 140° |
| 2026-05-04 14:38 | 47.68124 | 20.63405 | 2937 ft | 79 kts | 142° |
| 2026-05-04 14:38 | 47.67741 | 20.63973 | 2983 ft | 77 kts | 142° |
| 2026-05-04 14:38 | 47.67362 | 20.64540 | 2996 ft | 78 kts | 142° |
| 2026-05-04 14:38 | 47.66983 | 20.65107 | 3015 ft | 78 kts | 141° |
| 2026-05-04 14:39 | 47.66599 | 20.65692 | 3034 ft | 81 kts | 141° |
| 2026-05-04 14:39 | 47.66189 | 20.66289 | 3096 ft | 84 kts | 142° |
| 2026-05-04 14:39 | 47.65767 | 20.66900 | 3121 ft | 89 kts | 144° |
| 2026-05-04 14:40 | 47.64859 | 20.68330 | 3024 ft | 93 kts | 136° |
| 2026-05-04 14:40 | 47.64404 | 20.69040 | 2940 ft | 90 kts | 139° |
| 2026-05-04 14:40 | 47.64001 | 20.69728 | 2986 ft | 88 kts | 140° |
| 2026-05-04 14:40 | 47.63597 | 20.70408 | 2989 ft | 88 kts | 141° |
| 2026-05-04 14:41 | 47.63174 | 20.71040 | 3023 ft | 86 kts | 140° |
| 2026-05-04 14:41 | 47.62761 | 20.71679 | 2987 ft | 86 kts | 143° |
| 2026-05-04 14:41 | 47.61834 | 20.72815 | 3000 ft | 86 kts | 148° |
| 2026-05-04 14:42 | 47.60879 | 20.73948 | 3097 ft | 87 kts | 150° |
| 2026-05-04 14:42 | 47.60426 | 20.74553 | 3146 ft | 90 kts | 130° |
| 2026-05-04 14:42 | 47.60137 | 20.75406 | 3120 ft | 95 kts | 120° |
| 2026-05-04 14:43 | 47.59879 | 20.76297 | 3113 ft | 93 kts | 119° |
| 2026-05-04 14:43 | 47.59631 | 20.77185 | 3088 ft | 94 kts | 124° |
| 2026-05-04 14:43 | 47.59332 | 20.78020 | 3106 ft | 90 kts | 127° |
| 2026-05-04 14:43 | 47.59126 | 20.78557 | 3077 ft | 91 kts | 127° |
| 2026-05-04 14:44 | 47.58815 | 20.79370 | 3025 ft | 91 kts | 127° |
| 2026-05-04 14:44 | 47.58384 | 20.80436 | 2982 ft | 92 kts | 131° |
| 2026-05-04 14:44 | 47.58035 | 20.81221 | 2980 ft | 90 kts | 131° |
| 2026-05-04 14:44 | 47.57668 | 20.81956 | 2958 ft | 89 kts | 133° |
| 2026-05-04 14:45 | 47.57306 | 20.82691 | 2933 ft | 88 kts | 130° |
| 2026-05-04 14:45 | 47.57078 | 20.83195 | 2916 ft | 86 kts | 131° |
| 2026-05-04 14:45 | 47.56768 | 20.83914 | 2996 ft | 81 kts | 129° |
| 2026-05-04 14:45 | 47.56471 | 20.84659 | 3034 ft | 87 kts | 126° |
| 2026-05-04 14:46 | 47.56185 | 20.85469 | 3029 ft | 91 kts | 126° |
| 2026-05-04 14:46 | 47.55875 | 20.86292 | 3031 ft | 92 kts | 128° |
| 2026-05-04 14:46 | 47.55527 | 20.87075 | 3044 ft | 90 kts | 130° |
| 2026-05-04 14:46 | 47.55159 | 20.87835 | 3016 ft | 91 kts | 134° |
| 2026-05-04 14:47 | 47.54776 | 20.88579 | 2996 ft | 91 kts | 135° |
| 2026-05-04 14:47 | 47.54399 | 20.89336 | 2970 ft | 91 kts | 128° |
| 2026-05-04 14:47 | 47.54055 | 20.90127 | 2936 ft | 92 kts | 130° |
| 2026-05-04 14:47 | 47.53715 | 20.90903 | 2939 ft | 89 kts | 130° |
| 2026-05-04 14:48 | 47.53375 | 20.91685 | 2908 ft | 90 kts | 128° |
| 2026-05-04 14:48 | 47.53031 | 20.92444 | 2858 ft | 89 kts | 139° |
| 2026-05-04 14:48 | 47.52623 | 20.93140 | 2817 ft | 88 kts | 139° |
| 2026-05-04 14:48 | 47.52231 | 20.93842 | 2760 ft | 90 kts | 133° |
| 2026-05-04 14:49 | 47.51868 | 20.94616 | 2712 ft | 91 kts | 129° |
| 2026-05-04 14:49 | 47.51523 | 20.95399 | 2672 ft | 91 kts | 131° |
| 2026-05-04 14:49 | 47.51189 | 20.96137 | 2688 ft | 86 kts | 125° |
| 2026-05-04 14:49 | 47.50892 | 20.96874 | 2752 ft | 78 kts | 126° |
| 2026-05-04 14:50 | 47.50618 | 20.97536 | 2871 ft | 72 kts | 128° |
| 2026-05-04 14:50 | 47.50366 | 20.98143 | 2959 ft | 69 kts | 131° |
| 2026-05-04 14:50 | 47.50070 | 20.98761 | 2958 ft | 74 kts | 135° |
| 2026-05-04 14:50 | 47.49737 | 20.99385 | 2951 ft | 80 kts | 136° |
| 2026-05-04 14:51 | 47.49403 | 21.00024 | 2981 ft | 79 kts | 130° |
| 2026-05-04 14:51 | 47.49138 | 21.00747 | 2976 ft | 83 kts | 123° |
| 2026-05-04 14:51 | 47.48895 | 21.01549 | 2947 ft | 87 kts | 121° |
| 2026-05-04 14:51 | 47.48639 | 21.02375 | 2935 ft | 87 kts | 120° |
| 2026-05-04 14:52 | 47.48377 | 21.03197 | 2938 ft | 90 kts | 121° |
| 2026-05-04 14:52 | 47.48107 | 21.04027 | 2970 ft | 90 kts | 122° |
| 2026-05-04 14:52 | 47.47833 | 21.04857 | 2999 ft | 90 kts | 122° |
| 2026-05-04 14:52 | 47.47561 | 21.05678 | 3045 ft | 90 kts | 123° |
| 2026-05-04 14:53 | 47.47325 | 21.06513 | 3104 ft | 89 kts | 120° |
| 2026-05-04 14:53 | 47.47076 | 21.07309 | 3136 ft | 85 kts | 123° |
| 2026-05-04 14:53 | 47.46806 | 21.08121 | 3101 ft | 90 kts | 123° |
| 2026-05-04 14:53 | 47.46515 | 21.08930 | 3084 ft | 89 kts | 126° |
| 2026-05-04 14:54 | 47.46198 | 21.09745 | 3020 ft | 94 kts | 126° |
| 2026-05-04 14:54 | 47.45877 | 21.10588 | 3015 ft | 95 kts | 124° |
| 2026-05-04 14:54 | 47.45622 | 21.11485 | 2995 ft | 97 kts | 118° |
| 2026-05-04 14:54 | 47.45396 | 21.12406 | 3011 ft | 95 kts | 117° |
| 2026-05-04 14:55 | 47.45148 | 21.13321 | 2975 ft | 96 kts | 120° |
| 2026-05-04 14:55 | 47.44888 | 21.14212 | 2965 ft | 94 kts | 118° |
| 2026-05-04 14:55 | 47.44626 | 21.15091 | 2953 ft | 93 kts | 117° |
| 2026-05-04 14:55 | 47.44519 | 21.16048 | 2948 ft | 97 kts | 92° |
| 2026-05-04 14:56 | 47.44633 | 21.17065 | 2920 ft | 101 kts | 80° |
| 2026-05-04 14:56 | 47.44812 | 21.18071 | 2882 ft | 102 kts | 80° |
| 2026-05-04 14:56 | 47.44979 | 21.19074 | 2866 ft | 101 kts | 82° |
| 2026-05-04 14:56 | 47.45141 | 21.20086 | 2883 ft | 101 kts | 82° |
| 2026-05-04 14:57 | 47.45279 | 21.21108 | 2848 ft | 101 kts | 86° |
| 2026-05-04 14:57 | 47.45398 | 21.22118 | 2847 ft | 97 kts | 86° |
| 2026-05-04 14:57 | 47.45503 | 21.23100 | 2843 ft | 97 kts | 88° |
| 2026-05-04 14:57 | 47.45595 | 21.24092 | 2860 ft | 98 kts | 88° |
| 2026-05-04 14:58 | 47.45673 | 21.25099 | 2880 ft | 100 kts | 89° |
| 2026-05-04 14:58 | 47.45768 | 21.26123 | 2908 ft | 97 kts | 88° |
| 2026-05-04 14:58 | 47.45881 | 21.27102 | 2839 ft | 98 kts | 86° |
| 2026-05-04 14:58 | 47.45998 | 21.28111 | 2698 ft | 100 kts | 89° |
| 2026-05-04 14:59 | 47.46076 | 21.29143 | 2564 ft | 101 kts | 90° |
| 2026-05-04 14:59 | 47.46140 | 21.30185 | 2414 ft | 104 kts | 86° |
| 2026-05-04 14:59 | 47.46329 | 21.32342 | 2066 ft | 107 kts | 90° |
| 2026-05-04 15:00 | 47.46403 | 21.33429 | 1899 ft | 107 kts | 89° |
| 2026-05-04 15:00 | 47.46451 | 21.34533 | 1724 ft | 106 kts | 92° |
| 2026-05-04 15:00 | 47.46456 | 21.35611 | 1538 ft | 105 kts | 95° |
| 2026-05-04 15:01 | 47.46845 | 21.37632 | 1294 ft | 102 kts | 62° |
| 2026-05-04 15:01 | 47.47202 | 21.38526 | 1206 ft | 102 kts | 62° |
| 2026-05-04 15:01 | 47.47563 | 21.39416 | 1170 ft | 98 kts | 63° |
| 2026-05-04 15:01 | 47.47806 | 21.40305 | 1181 ft | 84 kts | 98° |
| 2026-05-04 15:02 | 47.47559 | 21.40896 | 1143 ft | 70 kts | 144° |
| 2026-05-04 15:02 | 47.47189 | 21.41211 | 1121 ft | 55 kts | 197° |
| 2026-05-04 15:02 | 47.46898 | 21.40763 | 945 ft | 63 kts | 229° |
| 2026-05-04 15:02 | 47.46650 | 21.40308 | 706 ft | 58 kts | 231° |
| 2026-05-04 15:03 | 47.46378 | 21.39810 | 434 ft | 65 kts | 231° |
| 2026-05-04 15:03 | 47.46106 | 21.39339 | 321 ft | 51 kts | 230° |
| 2026-05-04 15:03 | 47.45947 | 21.39060 | 320 ft | 23 kts | 230° |
| 2026-05-04 15:03 | 47.45877 | 21.38940 | 318 ft | 10 kts | 228° |
| 2026-05-04 15:04 | 47.45842 | 21.38886 | 319 ft | 5 kts | 225° |
| 2026-05-04 15:04 | 47.45830 | 21.38869 | 319 ft | 0 kts | 221° |
| 2026-05-04 15:04 | 47.45828 | 21.38866 | 319 ft | 1 kts | 220° |
| 2026-05-04 15:04 | 47.45803 | 21.38849 | 317 ft | 9 kts | 191° |
| 2026-05-04 15:05 | 47.45706 | 21.38854 | 311 ft | 17 kts | 174° |
| 2026-05-04 15:05 | 47.45630 | 21.38857 | 313 ft | 0 kts | 188° |
| 2026-05-04 15:11 | 47.45621 | 21.38794 | 310 ft | 12 kts | 262° |
| 2026-05-04 15:12 | 47.45628 | 21.38691 | 310 ft | 8 kts | 280° |
| 2026-05-04 15:12 | 47.45639 | 21.38654 | 310 ft | 0 kts | 323° |
| 2026-05-04 15:12 | 47.45645 | 21.38647 | 311 ft | 4 kts | 319° |
| 2026-05-04 15:12 | 47.45656 | 21.38630 | 313 ft | 1 kts | 314° |
| 2026-05-04 15:13 | 47.45671 | 21.38607 | 312 ft | 5 kts | 310° |
| 2026-05-04 15:13 | 47.45674 | 21.38602 | 312 ft | 0 kts | 308° |
| 2026-05-04 15:15 | 47.45674 | 21.38601 | 312 ft | 0 kts | 307° |
| 2026-05-04 15:17 | 47.45682 | 21.38588 | 312 ft | 6 kts | 328° |
| 2026-05-04 15:17 | 47.45705 | 21.38601 | 313 ft | 0 kts | 39° |
| 2026-05-04 15:18 | 47.45745 | 21.38654 | 313 ft | 28 kts | 43° |
| 2026-05-04 15:18 | 47.45975 | 21.38984 | 347 ft | 60 kts | 45° |
| 2026-05-04 15:19 | 47.46654 | 21.40113 | 632 ft | 75 kts | 53° |
| 2026-05-04 15:19 | 47.46991 | 21.40760 | 767 ft | 80 kts | 53° |
| 2026-05-04 15:19 | 47.47643 | 21.42069 | 1021 ft | 80 kts | 57° |
| 2026-05-04 15:20 | 47.47941 | 21.42755 | 1229 ft | 76 kts | 58° |
| 2026-05-04 15:20 | 47.48229 | 21.43459 | 1347 ft | 80 kts | 62° |
| 2026-05-04 15:20 | 47.48501 | 21.44156 | 1527 ft | 79 kts | 66° |
| 2026-05-04 15:20 | 47.48747 | 21.44883 | 1668 ft | 84 kts | 71° |
| 2026-05-04 15:21 | 47.48994 | 21.45686 | 1851 ft | 90 kts | 69° |
| 2026-05-04 15:21 | 47.49211 | 21.46515 | 2114 ft | 82 kts | 73° |
| 2026-05-04 15:21 | 47.49554 | 21.48220 | 2360 ft | 90 kts | 79° |
| 2026-05-04 15:22 | 47.49721 | 21.49094 | 2542 ft | 89 kts | 76° |
| 2026-05-04 15:22 | 47.49883 | 21.50015 | 2627 ft | 96 kts | 79° |
| 2026-05-04 15:22 | 47.50198 | 21.51902 | 2860 ft | 91 kts | 78° |
| 2026-05-04 15:23 | 47.50366 | 21.52847 | 2946 ft | 98 kts | 69° |
| 2026-05-04 15:23 | 47.50804 | 21.53609 | 3013 ft | 104 kts | 36° |
| 2026-05-04 15:23 | 47.51481 | 21.54044 | 2949 ft | 109 kts | 11° |
| 2026-05-04 15:23 | 47.52230 | 21.54279 | 2951 ft | 108 kts | 7° |
| 2026-05-04 15:24 | 47.53713 | 21.54571 | 3009 ft | 106 kts | 358° |
| 2026-05-04 15:24 | 47.55189 | 21.54815 | 3026 ft | 105 kts | 9° |
| 2026-05-04 15:25 | 47.55868 | 21.55228 | 3062 ft | 107 kts | 34° |
| 2026-05-04 15:25 | 47.56431 | 21.55999 | 3059 ft | 113 kts | 47° |
| 2026-05-04 15:25 | 47.56951 | 21.56882 | 3005 ft | 114 kts | 52° |
| 2026-05-04 15:26 | 47.57849 | 21.58791 | 2906 ft | 115 kts | 62° |
| 2026-05-04 15:26 | 47.58217 | 21.59823 | 2891 ft | 113 kts | 67° |
| 2026-05-04 15:26 | 47.58989 | 21.61843 | 2947 ft | 111 kts | 47° |
| 2026-05-04 15:27 | 47.59609 | 21.62496 | 2996 ft | 114 kts | 25° |
| 2026-05-04 15:27 | 47.61108 | 21.63350 | 2942 ft | 116 kts | 17° |
| 2026-05-04 15:28 | 47.62643 | 21.64131 | 2872 ft | 114 kts | 12° |
| 2026-05-04 15:28 | 47.63427 | 21.64261 | 2831 ft | 117 kts | 0° |
| 2026-05-04 15:28 | 47.65039 | 21.64374 | 2654 ft | 111 kts | 0° |
| 2026-05-04 15:29 | 47.65788 | 21.64409 | 2748 ft | 102 kts | 359° |
| 2026-05-04 15:30 | 47.68715 | 21.64728 | 2852 ft | 108 kts | 5° |
| 2026-05-04 15:30 | 47.70819 | 21.65399 | 2961 ft | 108 kts | 13° |
| 2026-05-04 15:31 | 47.72231 | 21.65924 | 3024 ft | 107 kts | 11° |
| 2026-05-04 15:31 | 47.72955 | 21.66187 | 3038 ft | 107 kts | 11° |
| 2026-05-04 15:32 | 47.74881 | 21.66955 | 3017 ft | 107 kts | 14° |
| 2026-05-04 15:32 | 47.76308 | 21.67487 | 3040 ft | 107 kts | 9° |
| 2026-05-04 15:33 | 47.77779 | 21.67925 | 3010 ft | 109 kts | 7° |
| 2026-05-04 15:34 | 47.79997 | 21.68652 | 3012 ft | 110 kts | 12° |
| 2026-05-04 15:34 | 47.80731 | 21.68918 | 3047 ft | 108 kts | 12° |
| 2026-05-04 15:34 | 47.82213 | 21.69488 | 3041 ft | 110 kts | 12° |
| 2026-05-04 15:35 | 47.83719 | 21.70029 | 3101 ft | 112 kts | 11° |
| 2026-05-04 15:35 | 47.84484 | 21.70287 | 3071 ft | 113 kts | 9° |
| 2026-05-04 15:35 | 47.85261 | 21.70508 | 3031 ft | 115 kts | 8° |
| 2026-05-04 15:36 | 47.86843 | 21.70916 | 2863 ft | 116 kts | 6° |
| 2026-05-04 15:36 | 47.87617 | 21.71051 | 2871 ft | 110 kts | 356° |
| 2026-05-04 15:36 | 47.88380 | 21.70950 | 2811 ft | 111 kts | 345° |
| 2026-05-04 15:37 | 47.89122 | 21.70763 | 2772 ft | 104 kts | 343° |
| 2026-05-04 15:37 | 47.89812 | 21.70582 | 2660 ft | 100 kts | 344° |
| 2026-05-04 15:37 | 47.90491 | 21.70393 | 2551 ft | 99 kts | 342° |
| 2026-05-04 15:37 | 47.91168 | 21.70190 | 2441 ft | 100 kts | 341° |
| 2026-05-04 15:38 | 47.91856 | 21.69967 | 2240 ft | 102 kts | 342° |
| 2026-05-04 15:38 | 47.92545 | 21.69780 | 2041 ft | 100 kts | 346° |
| 2026-05-04 15:38 | 47.93239 | 21.69645 | 1873 ft | 99 kts | 349° |
| 2026-05-04 15:38 | 47.93934 | 21.69530 | 1686 ft | 106 kts | 349° |
| 2026-05-04 15:39 | 47.94684 | 21.69402 | 1471 ft | 107 kts | 348° |
| 2026-05-04 15:39 | 47.95414 | 21.69268 | 1240 ft | 107 kts | 349° |
| 2026-05-04 15:39 | 47.96766 | 21.69198 | 818 ft | 85 kts | 354° |
| 2026-05-04 15:40 | 47.97290 | 21.69232 | 579 ft | 70 kts | 350° |
| 2026-05-04 15:40 | 47.97740 | 21.69211 | 411 ft | 64 kts | 353° |
| 2026-05-04 15:40 | 47.98158 | 21.69234 | 344 ft | 47 kts | 352° |
| 2026-05-04 15:40 | 47.98416 | 21.69235 | 344 ft | 31 kts | 4° |
| 2026-05-04 15:41 | 47.98779 | 21.69253 | 369 ft | 74 kts | 0° |
| 2026-05-04 15:41 | 47.99314 | 21.69302 | 518 ft | 78 kts | 356° |
| 2026-05-04 15:41 | 47.99860 | 21.69398 | 704 ft | 81 kts | 358° |
| 2026-05-04 15:41 | 48.00408 | 21.69535 | 930 ft | 80 kts | 8° |
| 2026-05-04 15:42 | 48.00710 | 21.70100 | 1216 ft | 82 kts | 89° |
| 2026-05-04 15:42 | 48.00750 | 21.71065 | 1252 ft | 100 kts | 91° |
| 2026-05-04 15:42 | 48.00587 | 21.71972 | 1333 ft | 92 kts | 155° |
| 2026-05-04 15:42 | 47.99975 | 21.72073 | 1340 ft | 91 kts | 189° |
| 2026-05-04 15:43 | 47.99331 | 21.72007 | 1295 ft | 94 kts | 188° |
| 2026-05-04 15:43 | 47.98676 | 21.71987 | 1285 ft | 95 kts | 186° |
| 2026-05-04 15:43 | 47.98010 | 21.71982 | 1324 ft | 97 kts | 186° |
| 2026-05-04 15:43 | 47.97341 | 21.71979 | 1337 ft | 94 kts | 188° |
| 2026-05-04 15:44 | 47.96697 | 21.71887 | 1318 ft | 88 kts | 205° |
| 2026-05-04 15:44 | 47.96335 | 21.71239 | 1323 ft | 83 kts | 254° |
| 2026-05-04 15:44 | 47.96284 | 21.70377 | 1202 ft | 79 kts | 264° |
| 2026-05-04 15:44 | 47.96329 | 21.69597 | 1068 ft | 77 kts | 279° |
| 2026-05-04 15:45 | 47.96758 | 21.69167 | 976 ft | 89 kts | 340° |
| 2026-05-04 15:45 | 47.97377 | 21.69202 | 710 ft | 78 kts | 358° |
| 2026-05-04 15:45 | 47.97871 | 21.69221 | 434 ft | 66 kts | 355° |
| 2026-05-04 15:45 | 47.98267 | 21.69232 | 349 ft | 43 kts | 351° |
| 2026-05-04 15:46 | 47.98551 | 21.69238 | 349 ft | 54 kts | 360° |
| 2026-05-04 15:46 | 47.99001 | 21.69258 | 450 ft | 68 kts | 355° |
| 2026-05-04 15:46 | 47.99520 | 21.69324 | 544 ft | 83 kts | 356° |
| 2026-05-04 15:46 | 48.00066 | 21.69417 | 788 ft | 76 kts | 358° |
| 2026-05-04 15:47 | 48.00593 | 21.69537 | 1017 ft | 80 kts | 3° |
| 2026-05-04 15:47 | 48.00928 | 21.70141 | 1254 ft | 84 kts | 90° |
| 2026-05-04 15:47 | 48.00938 | 21.71081 | 1297 ft | 96 kts | 94° |
| 2026-05-04 15:47 | 48.00943 | 21.72106 | 1329 ft | 99 kts | 100° |
| 2026-05-04 15:48 | 48.00535 | 21.72561 | 1338 ft | 85 kts | 196° |
| 2026-05-04 15:48 | 47.99947 | 21.72425 | 1345 ft | 85 kts | 191° |
| 2026-05-04 15:48 | 47.98786 | 21.72285 | 1236 ft | 86 kts | 187° |
| 2026-05-04 15:49 | 47.98182 | 21.72238 | 1185 ft | 88 kts | 187° |
| 2026-05-04 15:49 | 47.97580 | 21.72211 | 1229 ft | 85 kts | 193° |
| 2026-05-04 15:49 | 47.96992 | 21.72116 | 1217 ft | 83 kts | 195° |
| 2026-05-04 15:49 | 47.96544 | 21.71736 | 1216 ft | 77 kts | 248° |
| 2026-05-04 15:50 | 47.96561 | 21.70903 | 1158 ft | 77 kts | 272° |
| 2026-05-04 15:50 | 47.96634 | 21.70212 | 1099 ft | 60 kts | 274° |
| 2026-05-04 15:50 | 47.96758 | 21.69589 | 937 ft | 60 kts | 280° |
| 2026-05-04 15:50 | 47.97077 | 21.69195 | 747 ft | 73 kts | 346° |
| 2026-05-04 15:51 | 47.97594 | 21.69214 | 472 ft | 65 kts | 355° |
| 2026-05-04 15:51 | 47.98021 | 21.69224 | 349 ft | 50 kts | 355° |
| 2026-05-04 15:51 | 47.98283 | 21.69228 | 347 ft | 29 kts | 357° |
| 2026-05-04 15:51 | 47.98461 | 21.69237 | 344 ft | 23 kts | 359° |
| 2026-05-04 15:52 | 47.98720 | 21.69248 | 350 ft | 56 kts | 358° |
| 2026-05-04 15:52 | 47.99172 | 21.69286 | 411 ft | 72 kts | 355° |
| 2026-05-04 15:52 | 47.99640 | 21.69333 | 554 ft | 72 kts | 356° |
| 2026-05-04 15:53 | 47.99846 | 21.69363 | 558 ft | 79 kts | 359° |
| 2026-05-04 15:53 | 48.00368 | 21.69463 | 791 ft | 73 kts | 357° |
| 2026-05-04 15:54 | 48.00894 | 21.69574 | 964 ft | 78 kts | 2° |
| 2026-05-04 15:54 | 48.01312 | 21.70029 | 1043 ft | 83 kts | 83° |
| 2026-05-04 15:54 | 48.01338 | 21.70955 | 1039 ft | 95 kts | 98° |
| 2026-05-04 15:54 | 48.01332 | 21.71969 | 1140 ft | 100 kts | 97° |
| 2026-05-04 15:55 | 48.01012 | 21.72711 | 1224 ft | 87 kts | 178° |
| 2026-05-04 15:55 | 48.00398 | 21.72622 | 1231 ft | 90 kts | 190° |
| 2026-05-04 15:55 | 47.99789 | 21.72548 | 1296 ft | 86 kts | 188° |
| 2026-05-04 15:55 | 47.99194 | 21.72471 | 1226 ft | 86 kts | 190° |
| 2026-05-04 15:56 | 47.98612 | 21.72380 | 1213 ft | 81 kts | 191° |
| 2026-05-04 15:56 | 47.98041 | 21.72301 | 1169 ft | 84 kts | 188° |
| 2026-05-04 15:56 | 47.97468 | 21.72231 | 1250 ft | 82 kts | 191° |
| 2026-05-04 15:56 | 47.96895 | 21.72139 | 1244 ft | 82 kts | 195° |
| 2026-05-04 15:57 | 47.96609 | 21.71539 | 1184 ft | 82 kts | 269° |
| 2026-05-04 15:57 | 47.96671 | 21.70759 | 1137 ft | 68 kts | 276° |
| 2026-05-04 15:57 | 47.96759 | 21.70103 | 1036 ft | 62 kts | 278° |
| 2026-05-04 15:57 | 47.96880 | 21.69491 | 876 ft | 67 kts | 291° |
| 2026-05-04 15:58 | 47.97301 | 21.69153 | 645 ft | 78 kts | 1° |
| 2026-05-04 15:58 | 47.97776 | 21.69223 | 432 ft | 66 kts | 356° |
| 2026-05-04 15:58 | 47.98166 | 21.69226 | 346 ft | 44 kts | 359° |
| 2026-05-04 15:58 | 47.98509 | 21.69235 | 346 ft | 67 kts | 356° |
| 2026-05-04 15:59 | 47.99034 | 21.69288 | 452 ft | 78 kts | 357° |
| 2026-05-04 15:59 | 47.99567 | 21.69370 | 636 ft | 78 kts | 1° |
| 2026-05-04 15:59 | 48.00083 | 21.69522 | 900 ft | 72 kts | 2° |
| 2026-05-04 15:59 | 48.00594 | 21.69745 | 1107 ft | 76 kts | 40° |
| 2026-05-04 16:00 | 48.00654 | 21.70488 | 1136 ft | 87 kts | 107° |
| 2026-05-04 16:00 | 48.00582 | 21.71452 | 1104 ft | 98 kts | 101° |
| 2026-05-04 16:00 | 48.00433 | 21.72374 | 1268 ft | 83 kts | 146° |
| 2026-05-04 16:00 | 47.99894 | 21.72471 | 1291 ft | 84 kts | 195° |
| 2026-05-04 16:01 | 47.99298 | 21.72281 | 1228 ft | 90 kts | 195° |
| 2026-05-04 16:01 | 47.98685 | 21.72070 | 1146 ft | 91 kts | 196° |
| 2026-05-04 16:01 | 47.98052 | 21.71879 | 1079 ft | 93 kts | 193° |
| 2026-05-04 16:01 | 47.97397 | 21.71787 | 1048 ft | 95 kts | 191° |
| 2026-05-04 16:02 | 47.96790 | 21.71575 | 1072 ft | 84 kts | 223° |
| 2026-05-04 16:02 | 47.96696 | 21.70794 | 1091 ft | 79 kts | 276° |
| 2026-05-04 16:02 | 47.96939 | 21.69387 | 817 ft | 67 kts | 297° |
| 2026-05-04 16:03 | 47.97394 | 21.69205 | 617 ft | 68 kts | 358° |
| 2026-05-04 16:03 | 47.97857 | 21.69223 | 404 ft | 65 kts | 354° |
| 2026-05-04 16:03 | 47.98219 | 21.69226 | 347 ft | 38 kts | 1° |
| 2026-05-04 16:03 | 47.98435 | 21.69237 | 348 ft | 22 kts | 3° |
| 2026-05-04 16:04 | 47.98498 | 21.69187 | 345 ft | 8 kts | 297° |
| 2026-05-04 16:04 | 47.98548 | 21.69062 | 350 ft | 8 kts | 300° |
| 2026-05-04 16:04 | 47.98550 | 21.69027 | 343 ft | 1 kts | 104° |
| 2026-05-04 16:05 | 47.98550 | 21.69028 | 343 ft | 0 kts | 96° |